createdAt,value
2022-08-24T04:02:06.342Z,70.03
2022-08-24T04:06:21.351Z,70.17
2022-08-24T04:10:33.369Z,70.49
2022-08-24T04:14:45.183Z,70.93
2022-08-24T04:19:00.984Z,70.87
2022-08-24T04:23:14.790Z,71.03
2022-08-24T04:27:26.553Z,71.00
2022-08-24T04:31:39.412Z,71.58
2022-08-24T04:35:51.037Z,71.15
2022-08-24T04:40:03.791Z,71.04
2022-08-24T04:44:24.900Z,70.84
2022-08-24T04:48:37.669Z,71.35
2022-08-24T04:52:49.518Z,71.10
2022-08-24T04:57:01.987Z,71.25
2022-08-24T05:01:17.965Z,70.80
2022-08-24T05:05:29.965Z,70.49
2022-08-24T05:09:41.589Z,70.60
2022-08-24T05:13:55.949Z,70.56
2022-08-24T05:18:08.666Z,70.36
2022-08-24T05:22:21.117Z,70.30
2022-08-24T05:26:37.870Z,69.82
2022-08-24T05:30:51.055Z,69.99
2022-08-24T05:35:04.756Z,69.35
2022-08-24T05:39:17.056Z,68.77
2022-08-24T05:43:36.093Z,68.50
2022-08-24T05:47:47.931Z,68.06
2022-08-24T05:52:22.541Z,67.64
2022-08-24T05:56:35.642Z,67.47
2022-08-24T06:00:47.556Z,67.23
2022-08-24T06:04:59.145Z,67.06
2022-08-24T06:09:11.701Z,67.27
2022-08-24T06:13:24.131Z,66.51
2022-08-24T06:17:36.950Z,65.75
2022-08-24T06:21:51.646Z,65.64
2022-08-24T06:26:23.843Z,64.91
2022-08-24T06:30:35.501Z,56.79
2022-08-24T06:35:12.771Z,42.77
2022-08-24T06:39:24.721Z,36.56
2022-08-24T06:43:38.656Z,33.01
2022-08-24T06:47:57.271Z,31.25
2022-08-24T06:52:10.971Z,30.85
2022-08-24T06:56:23.002Z,31.55
2022-08-24T07:00:34.747Z,34.81
2022-08-24T07:04:46.850Z,37.42
2022-08-24T07:09:17.038Z,38.63
2022-08-24T07:13:31.066Z,39.55
2022-08-24T07:17:42.991Z,39.21
2022-08-24T07:21:58.165Z,40.46
2022-08-24T07:26:22.130Z,41.31
2022-08-24T07:30:36.403Z,41.86
2022-08-24T07:34:48.149Z,39.76
2022-08-24T07:39:01.477Z,40.98
2022-08-24T07:43:13.231Z,40.58
2022-08-24T07:47:38.066Z,40.21
2022-08-24T07:52:01.889Z,40.53
2022-08-24T07:56:13.677Z,41.16
2022-08-24T08:00:28.862Z,41.08
2022-08-24T08:04:45.055Z,41.96
2022-08-24T08:08:58.239Z,41.46
2022-08-24T08:13:10.022Z,41.60
2022-08-24T08:17:23.237Z,40.84
2022-08-24T08:21:53.948Z,40.69
2022-08-24T08:26:07.519Z,40.72
2022-08-24T08:30:30.383Z,41.10
2022-08-24T08:34:42.278Z,40.89
2022-08-24T08:38:53.993Z,40.54
2022-08-24T08:43:14.117Z,40.76
2022-08-24T08:53:07.472Z,40.02
2022-08-24T08:57:39.421Z,39.94
2022-08-24T09:02:07.293Z,39.43
2022-08-24T09:06:40.706Z,38.87
2022-08-24T09:11:06.206Z,38.49
2022-08-24T09:15:28.816Z,38.73
2022-08-24T09:20:08.839Z,37.82
2022-08-24T09:24:26.019Z,37.43
2022-08-24T09:28:48.115Z,37.27
2022-08-24T09:33:20.211Z,36.79
2022-08-24T09:37:47.207Z,36.18
2022-08-24T09:42:01.653Z,35.81
2022-08-24T09:46:58.344Z,34.57
2022-08-24T09:51:27.672Z,34.85
2022-08-24T09:56:07.525Z,33.47
2022-08-24T10:00:29.985Z,33.69
2022-08-24T10:04:44.693Z,33.15
2022-08-24T10:09:24.032Z,32.55
2022-08-24T10:13:43.322Z,32.89
2022-08-24T10:18:04.091Z,33.18
2022-08-24T10:22:34.465Z,32.30
2022-08-24T10:27:08.529Z,31.44
2022-08-24T10:31:32.145Z,31.86
2022-08-24T10:35:58.773Z,31.14
2022-08-24T10:40:31.793Z,30.74
2022-08-24T10:44:46.507Z,32.26
2022-08-24T10:49:10.135Z,30.43
2022-08-24T10:53:25.263Z,30.22
2022-08-24T10:57:52.431Z,29.46
2022-08-24T11:02:12.480Z,28.17
2022-08-24T11:06:27.939Z,28.60
2022-08-24T11:10:40.356Z,28.08
2022-08-24T11:14:53.855Z,29.68
2022-08-24T11:19:31.221Z,27.28
2022-08-24T11:23:43.118Z,27.56
2022-08-24T11:28:03.679Z,27.08
2022-08-24T11:32:55.046Z,26.60
2022-08-24T11:37:14.347Z,26.76
2022-08-24T11:41:33.005Z,27.60
2022-08-24T11:46:06.721Z,27.34
2022-08-24T11:51:00.790Z,28.02
2022-08-24T11:55:26.385Z,27.46
2022-08-24T12:00:03.622Z,28.45
2022-08-24T12:04:39.548Z,26.97
2022-08-24T12:08:57.332Z,27.01
2022-08-24T12:13:36.099Z,27.50
2022-08-24T12:18:02.752Z,27.50
2022-08-24T12:22:15.766Z,26.90
2022-08-24T12:26:37.029Z,27.89
2022-08-24T12:30:50.192Z,27.94
2022-08-24T12:35:15.749Z,28.00
2022-08-24T12:39:34.948Z,27.58
2022-08-24T12:43:55.417Z,26.75
2022-08-24T12:48:23.110Z,26.92
2022-08-24T12:52:59.562Z,24.42
2022-08-24T12:57:31.405Z,23.74
2022-08-24T13:02:01.621Z,24.49
2022-08-24T13:06:20.462Z,24.46
2022-08-24T13:10:40.340Z,24.73
2022-08-24T13:14:54.108Z,25.05
2022-08-24T13:19:36.812Z,24.45
2022-08-24T13:24:26.606Z,24.43
2022-08-24T13:28:45.637Z,24.72
2022-08-24T13:33:03.318Z,23.07
2022-08-24T13:37:25.183Z,23.61
2022-08-24T13:42:00.509Z,23.80
2022-08-24T13:46:37.329Z,23.61
2022-08-24T13:51:20.731Z,23.88
2022-08-24T13:55:45.062Z,22.96
2022-08-24T14:00:33.920Z,23.96
2022-08-24T14:04:57.660Z,23.50
2022-08-24T14:09:37.279Z,23.74
2022-08-24T14:14:06.511Z,23.43
2022-08-24T14:18:38.316Z,23.21
2022-08-24T14:23:03.401Z,23.32
2022-08-24T14:27:55.583Z,23.48
2022-08-24T14:32:12.247Z,23.21
2022-08-24T14:36:46.477Z,23.34
2022-08-24T14:41:18.324Z,23.39
2022-08-24T14:45:53.809Z,23.48
2022-08-24T14:50:12.709Z,23.68
2022-08-24T14:54:52.931Z,22.92
2022-08-24T14:59:31.573Z,23.33
2022-08-24T15:04:03.438Z,23.36
2022-08-24T15:08:48.777Z,23.59
2022-08-24T15:13:06.426Z,24.07
2022-08-24T15:17:23.253Z,23.42
2022-08-24T15:21:46.142Z,25.18
2022-08-24T15:26:06.990Z,24.93
2022-08-24T15:30:28.282Z,26.15
2022-08-24T15:34:53.406Z,26.44
2022-08-24T15:39:05.863Z,26.05
2022-08-24T15:43:17.670Z,25.52
2022-08-24T15:47:35.519Z,25.62
2022-08-24T15:51:54.504Z,25.97
2022-08-24T15:56:21.264Z,25.95
2022-08-24T16:01:06.188Z,26.19
2022-08-24T16:05:25.027Z,26.45
2022-08-24T16:09:37.702Z,26.37
2022-08-24T16:13:50.289Z,25.92
2022-08-24T16:18:01.938Z,25.85
2022-08-24T16:22:26.345Z,26.37
2022-08-24T16:26:47.119Z,25.98
2022-08-24T16:31:00.999Z,26.33
2022-08-24T16:35:21.247Z,26.65
2022-08-24T16:39:33.359Z,25.72
2022-08-24T16:43:45.849Z,26.50
2022-08-24T16:47:58.510Z,26.90
2022-08-24T16:52:10.577Z,26.25
2022-08-24T16:56:22.625Z,26.39
2022-08-24T17:00:34.143Z,26.24
2022-08-24T17:04:46.160Z,27.04
2022-08-24T17:08:58.588Z,26.75
2022-08-24T17:13:14.176Z,26.94
2022-08-24T17:17:35.523Z,27.01
2022-08-24T17:21:48.581Z,27.28
2022-08-24T17:26:03.318Z,27.17
2022-08-24T17:30:17.102Z,27.99
2022-08-24T17:34:29.559Z,28.55
2022-08-24T17:38:46.037Z,27.99
2022-08-24T17:42:57.928Z,28.52
2022-08-24T17:47:09.687Z,28.69
2022-08-24T17:51:21.440Z,29.01
2022-08-24T17:55:33.008Z,28.81
2022-08-24T17:59:45.243Z,29.35
2022-08-24T18:03:56.979Z,29.43
2022-08-24T18:08:08.582Z,29.51
2022-08-24T18:12:22.815Z,30.23
2022-08-24T18:16:34.593Z,30.60
2022-08-24T18:20:46.145Z,31.82
2022-08-24T18:24:57.673Z,32.34
2022-08-24T18:29:14.978Z,33.08
2022-08-24T18:33:26.679Z,33.84
2022-08-24T18:37:39.081Z,34.30
2022-08-24T18:41:51.386Z,34.08
2022-08-24T18:46:04.748Z,34.44
2022-08-24T18:50:16.608Z,35.33
2022-08-24T18:54:41.504Z,35.11
2022-08-24T18:58:53.765Z,34.85
2022-08-24T19:03:07.391Z,36.10
2022-08-24T19:07:19.174Z,35.21
2022-08-24T19:11:30.706Z,35.17
2022-08-24T19:15:43.108Z,36.02
2022-08-24T19:19:54.745Z,36.02
2022-08-24T19:24:07.567Z,36.42
2022-08-24T19:28:20.099Z,37.78
2022-08-24T19:32:38.848Z,38.15
2022-08-24T19:36:50.717Z,39.27
2022-08-24T19:41:11.820Z,40.29
2022-08-24T19:45:44.345Z,40.92
2022-08-24T19:49:55.869Z,41.59
2022-08-24T19:54:08.639Z,41.82
2022-08-24T19:58:28.482Z,42.50
2022-08-24T20:02:40.029Z,42.79
2022-08-24T20:06:51.650Z,42.92
2022-08-24T20:11:04.782Z,44.20
2022-08-24T20:15:16.930Z,43.97
2022-08-24T20:19:29.923Z,45.24
2022-08-24T20:23:42.098Z,45.52
2022-08-24T20:28:12.170Z,45.92
2022-08-24T20:32:28.812Z,46.46
2022-08-24T20:36:43.725Z,46.85
2022-08-24T20:40:55.418Z,47.01
2022-08-24T20:45:09.084Z,47.23
2022-08-24T20:49:26.677Z,47.56
2022-08-24T20:53:38.283Z,47.52
2022-08-24T20:57:55.766Z,48.15
2022-08-24T21:02:07.371Z,48.07
2022-08-24T21:06:19.603Z,48.43
2022-08-24T21:10:31.591Z,48.87
2022-08-24T21:14:43.164Z,49.36
2022-08-24T21:18:54.696Z,49.00
2022-08-24T21:23:06.315Z,50.00
2022-08-24T21:27:18.493Z,49.67
